sensor_id;sensor_type;location;lat;lon;timestamp;P1;durP1;ratioP1;P2;durP2;ratioP2
45366;SDS011;31100;55.848;37.636;2023-05-13T00:00:11;11.45;;;6.28;;
45366;SDS011;31100;55.848;37.636;2023-05-13T00:02:37;13.55;;;6.10;;
45366;SDS011;31100;55.848;37.636;2023-05-13T00:05:03;12.15;;;5.70;;
45366;SDS011;31100;55.848;37.636;2023-05-13T00:07:28;12.73;;;6.05;;
45366;SDS011;31100;55.848;37.636;2023-05-13T00:09:54;15.68;;;6.10;;
45366;SDS011;31100;55.848;37.636;2023-05-13T00:12:20;12.98;;;6.35;;
45366;SDS011;31100;55.848;37.636;2023-05-13T00:14:45;12.45;;;5.70;;
45366;SDS011;31100;55.848;37.636;2023-05-13T00:17:10;14.75;;;6.35;;
45366;SDS011;31100;55.848;37.636;2023-05-13T00:19:36;9.13;;;5.30;;
45366;SDS011;31100;55.848;37.636;2023-05-13T00:22:01;11.55;;;5.78;;
45366;SDS011;31100;55.848;37.636;2023-05-13T00:24:27;8.95;;;5.50;;
45366;SDS011;31100;55.848;37.636;2023-05-13T00:26:53;8.45;;;4.97;;
45366;SDS011;31100;55.848;37.636;2023-05-13T00:29:18;9.05;;;5.00;;
45366;SDS011;31100;55.848;37.636;2023-05-13T00:31:44;8.75;;;5.28;;
45366;SDS011;31100;55.848;37.636;2023-05-13T00:34:09;10.77;;;5.50;;
45366;SDS011;31100;55.848;37.636;2023-05-13T00:36:35;9.85;;;5.32;;
45366;SDS011;31100;55.848;37.636;2023-05-13T00:39:00;7.15;;;5.07;;
45366;SDS011;31100;55.848;37.636;2023-05-13T00:41:26;7.75;;;5.20;;
45366;SDS011;31100;55.848;37.636;2023-05-13T00:43:54;11.80;;;5.38;;
45366;SDS011;31100;55.848;37.636;2023-05-13T00:46:23;8.15;;;4.85;;
45366;SDS011;31100;55.848;37.636;2023-05-13T00:48:49;8.70;;;4.65;;
45366;SDS011;31100;55.848;37.636;2023-05-13T00:51:15;8.35;;;5.30;;
45366;SDS011;31100;55.848;37.636;2023-05-13T00:53:41;7.95;;;5.03;;
45366;SDS011;31100;55.848;37.636;2023-05-13T00:56:07;8.82;;;4.47;;
45366;SDS011;31100;55.848;37.636;2023-05-13T00:58:32;9.45;;;5.32;;
45366;SDS011;31100;55.848;37.636;2023-05-13T01:06:09;7.53;;;4.60;;
45366;SDS011;31100;55.848;37.636;2023-05-13T01:11:23;7.40;;;4.85;;
45366;SDS011;31100;55.848;37.636;2023-05-13T01:13:59;8.73;;;5.25;;
45366;SDS011;31100;55.848;37.636;2023-05-13T01:16:33;8.52;;;5.22;;
45366;SDS011;31100;55.848;37.636;2023-05-13T01:19:05;8.35;;;4.82;;
45366;SDS011;31100;55.848;37.636;2023-05-13T01:21:34;12.75;;;5.40;;
45366;SDS011;31100;55.848;37.636;2023-05-13T01:24:04;9.57;;;4.80;;
45366;SDS011;31100;55.848;37.636;2023-05-13T01:26:30;7.07;;;4.55;;
45366;SDS011;31100;55.848;37.636;2023-05-13T01:28:55;6.35;;;4.50;;
45366;SDS011;31100;55.848;37.636;2023-05-13T01:31:21;8.48;;;4.57;;
45366;SDS011;31100;55.848;37.636;2023-05-13T01:33:47;9.00;;;5.47;;
45366;SDS011;31100;55.848;37.636;2023-05-13T01:36:13;9.07;;;5.35;;
45366;SDS011;31100;55.848;37.636;2023-05-13T01:38:39;8.13;;;5.28;;
45366;SDS011;31100;55.848;37.636;2023-05-13T01:41:05;8.00;;;4.60;;
45366;SDS011;31100;55.848;37.636;2023-05-13T01:43:30;8.52;;;4.72;;
45366;SDS011;31100;55.848;37.636;2023-05-13T01:45:56;7.45;;;5.05;;
45366;SDS011;31100;55.848;37.636;2023-05-13T01:48:24;8.32;;;4.97;;
45366;SDS011;31100;55.848;37.636;2023-05-13T01:50:50;7.45;;;4.53;;
45366;SDS011;31100;55.848;37.636;2023-05-13T01:53:16;7.28;;;4.20;;
45366;SDS011;31100;55.848;37.636;2023-05-13T01:55:43;7.32;;;5.00;;
45366;SDS011;31100;55.848;37.636;2023-05-13T01:58:08;8.32;;;4.43;;
45366;SDS011;31100;55.848;37.636;2023-05-13T02:00:34;9.30;;;4.63;;
45366;SDS011;31100;55.848;37.636;2023-05-13T02:03:00;6.20;;;4.55;;
45366;SDS011;31100;55.848;37.636;2023-05-13T02:05:25;9.23;;;4.68;;
45366;SDS011;31100;55.848;37.636;2023-05-13T02:07:51;7.25;;;4.45;;
45366;SDS011;31100;55.848;37.636;2023-05-13T02:10:16;6.07;;;4.10;;
45366;SDS011;31100;55.848;37.636;2023-05-13T02:12:42;7.32;;;3.75;;
45366;SDS011;31100;55.848;37.636;2023-05-13T02:15:07;7.95;;;3.88;;
45366;SDS011;31100;55.848;37.636;2023-05-13T02:17:33;10.45;;;4.13;;
45366;SDS011;31100;55.848;37.636;2023-05-13T02:19:59;9.23;;;4.20;;
45366;SDS011;31100;55.848;37.636;2023-05-13T02:22:25;7.63;;;4.43;;
45366;SDS011;31100;55.848;37.636;2023-05-13T02:24:50;7.70;;;4.40;;
45366;SDS011;31100;55.848;37.636;2023-05-13T02:27:16;7.68;;;4.43;;
45366;SDS011;31100;55.848;37.636;2023-05-13T02:29:41;6.95;;;3.78;;
45366;SDS011;31100;55.848;37.636;2023-05-13T02:32:07;7.85;;;3.83;;
45366;SDS011;31100;55.848;37.636;2023-05-13T02:34:32;8.77;;;4.43;;
45366;SDS011;31100;55.848;37.636;2023-05-13T02:36:58;10.90;;;3.90;;
45366;SDS011;31100;55.848;37.636;2023-05-13T02:39:23;8.13;;;4.03;;
45366;SDS011;31100;55.848;37.636;2023-05-13T02:41:49;9.85;;;4.07;;
45366;SDS011;31100;55.848;37.636;2023-05-13T02:44:14;6.32;;;3.83;;
45366;SDS011;31100;55.848;37.636;2023-05-13T02:46:40;7.05;;;3.75;;
45366;SDS011;31100;55.848;37.636;2023-05-13T02:49:05;5.75;;;3.70;;
45366;SDS011;31100;55.848;37.636;2023-05-13T02:51:31;6.93;;;3.70;;
45366;SDS011;31100;55.848;37.636;2023-05-13T02:53:56;9.02;;;4.60;;
45366;SDS011;31100;55.848;37.636;2023-05-13T02:56:22;9.95;;;3.90;;
45366;SDS011;31100;55.848;37.636;2023-05-13T02:58:47;10.20;;;3.88;;
45366;SDS011;31100;55.848;37.636;2023-05-13T03:01:13;6.03;;;3.63;;
45366;SDS011;31100;55.848;37.636;2023-05-13T03:03:38;6.68;;;3.60;;
45366;SDS011;31100;55.848;37.636;2023-05-13T03:06:04;8.50;;;3.65;;
45366;SDS011;31100;55.848;37.636;2023-05-13T03:08:30;9.07;;;3.65;;
45366;SDS011;31100;55.848;37.636;2023-05-13T03:10:56;8.73;;;3.70;;
45366;SDS011;31100;55.848;37.636;2023-05-13T03:13:22;8.50;;;3.97;;
45366;SDS011;31100;55.848;37.636;2023-05-13T03:15:48;6.38;;;3.60;;
45366;SDS011;31100;55.848;37.636;2023-05-13T03:18:13;5.03;;;3.25;;
45366;SDS011;31100;55.848;37.636;2023-05-13T03:20:39;4.82;;;3.20;;
45366;SDS011;31100;55.848;37.636;2023-05-13T03:23:04;5.55;;;3.20;;
45366;SDS011;31100;55.848;37.636;2023-05-13T03:25:30;7.68;;;3.33;;
45366;SDS011;31100;55.848;37.636;2023-05-13T03:27:55;4.82;;;3.22;;
45366;SDS011;31100;55.848;37.636;2023-05-13T03:30:21;5.53;;;3.60;;
45366;SDS011;31100;55.848;37.636;2023-05-13T03:32:46;4.35;;;2.88;;
45366;SDS011;31100;55.848;37.636;2023-05-13T03:35:12;5.70;;;3.63;;
45366;SDS011;31100;55.848;37.636;2023-05-13T03:37:37;4.43;;;2.97;;
45366;SDS011;31100;55.848;37.636;2023-05-13T03:40:03;5.53;;;3.03;;
45366;SDS011;31100;55.848;37.636;2023-05-13T03:42:29;4.70;;;3.00;;
45366;SDS011;31100;55.848;37.636;2023-05-13T03:44:54;7.20;;;3.20;;
45366;SDS011;31100;55.848;37.636;2023-05-13T03:47:21;5.43;;;3.45;;
45366;SDS011;31100;55.848;37.636;2023-05-13T03:49:47;6.15;;;3.00;;
45366;SDS011;31100;55.848;37.636;2023-05-13T03:52:13;5.93;;;2.90;;
45366;SDS011;31100;55.848;37.636;2023-05-13T03:54:38;7.25;;;2.90;;
45366;SDS011;31100;55.848;37.636;2023-05-13T03:57:04;4.40;;;2.80;;
45366;SDS011;31100;55.848;37.636;2023-05-13T03:59:31;4.78;;;2.85;;
45366;SDS011;31100;55.848;37.636;2023-05-13T04:01:56;5.18;;;3.00;;
45366;SDS011;31100;55.848;37.636;2023-05-13T04:04:22;7.93;;;2.97;;
45366;SDS011;31100;55.848;37.636;2023-05-13T04:06:47;7.47;;;2.97;;
45366;SDS011;31100;55.848;37.636;2023-05-13T04:09:13;5.80;;;3.10;;
45366;SDS011;31100;55.848;37.636;2023-05-13T04:11:38;8.20;;;3.13;;
45366;SDS011;31100;55.848;37.636;2023-05-13T04:14:04;6.97;;;3.10;;
45366;SDS011;31100;55.848;37.636;2023-05-13T04:16:29;5.28;;;3.08;;
45366;SDS011;31100;55.848;37.636;2023-05-13T04:18:55;7.47;;;3.30;;
45366;SDS011;31100;55.848;37.636;2023-05-13T04:21:20;8.77;;;2.88;;
45366;SDS011;31100;55.848;37.636;2023-05-13T04:23:46;6.80;;;3.17;;
45366;SDS011;31100;55.848;37.636;2023-05-13T04:26:12;5.28;;;2.50;;
45366;SDS011;31100;55.848;37.636;2023-05-13T04:28:37;5.55;;;3.00;;
45366;SDS011;31100;55.848;37.636;2023-05-13T04:31:02;4.70;;;2.65;;
45366;SDS011;31100;55.848;37.636;2023-05-13T04:33:28;6.28;;;3.08;;
45366;SDS011;31100;55.848;37.636;2023-05-13T04:35:53;5.22;;;2.80;;
45366;SDS011;31100;55.848;37.636;2023-05-13T04:38:19;6.18;;;2.45;;
45366;SDS011;31100;55.848;37.636;2023-05-13T04:40:45;7.10;;;2.88;;
45366;SDS011;31100;55.848;37.636;2023-05-13T04:43:11;4.43;;;2.60;;
45366;SDS011;31100;55.848;37.636;2023-05-13T04:45:37;8.30;;;2.88;;
45366;SDS011;31100;55.848;37.636;2023-05-13T04:48:03;9.82;;;2.83;;
45366;SDS011;31100;55.848;37.636;2023-05-13T04:50:29;7.97;;;3.00;;
45366;SDS011;31100;55.848;37.636;2023-05-13T04:52:55;7.45;;;2.72;;
45366;SDS011;31100;55.848;37.636;2023-05-13T04:55:21;7.38;;;2.58;;
45366;SDS011;31100;55.848;37.636;2023-05-13T04:57:47;5.57;;;2.75;;
45366;SDS011;31100;55.848;37.636;2023-05-13T05:00:12;5.45;;;2.53;;
45366;SDS011;31100;55.848;37.636;2023-05-13T05:02:38;5.43;;;2.50;;
45366;SDS011;31100;55.848;37.636;2023-05-13T05:05:04;6.85;;;2.42;;
45366;SDS011;31100;55.848;37.636;2023-05-13T05:07:30;5.97;;;2.65;;
45366;SDS011;31100;55.848;37.636;2023-05-13T05:09:55;7.07;;;2.80;;
45366;SDS011;31100;55.848;37.636;2023-05-13T05:12:21;7.47;;;2.60;;
45366;SDS011;31100;55.848;37.636;2023-05-13T05:14:46;5.07;;;3.10;;
45366;SDS011;31100;55.848;37.636;2023-05-13T05:17:12;5.72;;;2.83;;
45366;SDS011;31100;55.848;37.636;2023-05-13T05:19:37;5.68;;;2.40;;
45366;SDS011;31100;55.848;37.636;2023-05-13T05:22:03;4.07;;;2.20;;
45366;SDS011;31100;55.848;37.636;2023-05-13T05:24:29;7.25;;;2.67;;
45366;SDS011;31100;55.848;37.636;2023-05-13T05:26:54;7.45;;;2.30;;
45366;SDS011;31100;55.848;37.636;2023-05-13T05:29:20;6.10;;;2.40;;
45366;SDS011;31100;55.848;37.636;2023-05-13T05:31:46;5.88;;;2.28;;
45366;SDS011;31100;55.848;37.636;2023-05-13T05:34:11;4.22;;;2.42;;
45366;SDS011;31100;55.848;37.636;2023-05-13T05:36:37;5.28;;;2.35;;
45366;SDS011;31100;55.848;37.636;2023-05-13T05:39:03;9.77;;;2.75;;
45366;SDS011;31100;55.848;37.636;2023-05-13T05:41:28;3.58;;;2.35;;
45366;SDS011;31100;55.848;37.636;2023-05-13T05:43:54;5.65;;;2.33;;
45366;SDS011;31100;55.848;37.636;2023-05-13T05:46:20;6.78;;;2.35;;
45366;SDS011;31100;55.848;37.636;2023-05-13T05:48:47;6.32;;;2.40;;
45366;SDS011;31100;55.848;37.636;2023-05-13T05:51:13;4.50;;;2.53;;
45366;SDS011;31100;55.848;37.636;2023-05-13T05:53:38;5.80;;;2.20;;
45366;SDS011;31100;55.848;37.636;2023-05-13T05:56:05;6.28;;;2.20;;
45366;SDS011;31100;55.848;37.636;2023-05-13T05:58:30;6.38;;;2.70;;
45366;SDS011;31100;55.848;37.636;2023-05-13T06:00:56;5.63;;;2.35;;
45366;SDS011;31100;55.848;37.636;2023-05-13T06:03:22;8.55;;;2.85;;
45366;SDS011;31100;55.848;37.636;2023-05-13T06:05:48;6.20;;;2.40;;
45366;SDS011;31100;55.848;37.636;2023-05-13T06:08:13;8.55;;;2.42;;
45366;SDS011;31100;55.848;37.636;2023-05-13T06:10:39;7.53;;;2.30;;
45366;SDS011;31100;55.848;37.636;2023-05-13T06:13:04;5.93;;;2.60;;
45366;SDS011;31100;55.848;37.636;2023-05-13T06:15:30;5.25;;;2.20;;
45366;SDS011;31100;55.848;37.636;2023-05-13T06:17:55;6.75;;;2.85;;
45366;SDS011;31100;55.848;37.636;2023-05-13T06:20:21;9.38;;;2.80;;
45366;SDS011;31100;55.848;37.636;2023-05-13T06:22:47;10.57;;;2.67;;
45366;SDS011;31100;55.848;37.636;2023-05-13T06:25:13;9.00;;;3.35;;
45366;SDS011;31100;55.848;37.636;2023-05-13T06:27:38;5.32;;;2.22;;
45366;SDS011;31100;55.848;37.636;2023-05-13T06:30:04;4.88;;;2.30;;
45366;SDS011;31100;55.848;37.636;2023-05-13T06:32:30;5.57;;;2.35;;
45366;SDS011;31100;55.848;37.636;2023-05-13T06:34:56;6.63;;;2.50;;
45366;SDS011;31100;55.848;37.636;2023-05-13T06:37:21;10.98;;;2.42;;
45366;SDS011;31100;55.848;37.636;2023-05-13T06:39:47;9.20;;;2.85;;
45366;SDS011;31100;55.848;37.636;2023-05-13T06:42:12;5.10;;;2.53;;
45366;SDS011;31100;55.848;37.636;2023-05-13T06:44:38;7.72;;;2.85;;
45366;SDS011;31100;55.848;37.636;2023-05-13T06:47:03;8.40;;;2.53;;
45366;SDS011;31100;55.848;37.636;2023-05-13T06:49:30;5.32;;;2.15;;
45366;SDS011;31100;55.848;37.636;2023-05-13T06:51:56;8.32;;;2.55;;
45366;SDS011;31100;55.848;37.636;2023-05-13T06:54:22;5.15;;;2.50;;
45366;SDS011;31100;55.848;37.636;2023-05-13T06:56:48;7.35;;;2.58;;
45366;SDS011;31100;55.848;37.636;2023-05-13T06:59:14;8.15;;;2.55;;
45366;SDS011;31100;55.848;37.636;2023-05-13T07:01:40;6.28;;;2.85;;
45366;SDS011;31100;55.848;37.636;2023-05-13T07:04:06;8.18;;;2.55;;
45366;SDS011;31100;55.848;37.636;2023-05-13T07:06:31;5.28;;;2.65;;
45366;SDS011;31100;55.848;37.636;2023-05-13T07:08:57;8.95;;;2.75;;
45366;SDS011;31100;55.848;37.636;2023-05-13T07:11:22;8.05;;;2.72;;
45366;SDS011;31100;55.848;37.636;2023-05-13T07:13:48;10.40;;;5.72;;
45366;SDS011;31100;55.848;37.636;2023-05-13T07:16:13;4.20;;;2.40;;
45366;SDS011;31100;55.848;37.636;2023-05-13T07:18:41;5.53;;;2.67;;
45366;SDS011;31100;55.848;37.636;2023-05-13T07:21:06;8.00;;;2.80;;
45366;SDS011;31100;55.848;37.636;2023-05-13T07:23:32;4.95;;;2.53;;
45366;SDS011;31100;55.848;37.636;2023-05-13T07:25:57;6.25;;;2.72;;
45366;SDS011;31100;55.848;37.636;2023-05-13T07:28:23;10.32;;;3.70;;
45366;SDS011;31100;55.848;37.636;2023-05-13T07:30:48;6.53;;;2.75;;
45366;SDS011;31100;55.848;37.636;2023-05-13T07:33:14;5.97;;;2.45;;
45366;SDS011;31100;55.848;37.636;2023-05-13T07:35:40;10.57;;;2.90;;
45366;SDS011;31100;55.848;37.636;2023-05-13T07:38:06;6.55;;;2.50;;
45366;SDS011;31100;55.848;37.636;2023-05-13T07:40:33;7.55;;;2.80;;
45366;SDS011;31100;55.848;37.636;2023-05-13T07:42:58;5.88;;;2.58;;
45366;SDS011;31100;55.848;37.636;2023-05-13T07:45:24;6.28;;;2.63;;
45366;SDS011;31100;55.848;37.636;2023-05-13T07:47:50;7.15;;;2.92;;
45366;SDS011;31100;55.848;37.636;2023-05-13T07:50:15;4.25;;;2.75;;
45366;SDS011;31100;55.848;37.636;2023-05-13T07:52:41;7.60;;;3.30;;
45366;SDS011;31100;55.848;37.636;2023-05-13T07:55:08;3.58;;;2.42;;
45366;SDS011;31100;55.848;37.636;2023-05-13T07:57:34;5.78;;;2.80;;
45366;SDS011;31100;55.848;37.636;2023-05-13T08:00:00;6.75;;;2.90;;
45366;SDS011;31100;55.848;37.636;2023-05-13T08:02:26;13.10;;;3.08;;
45366;SDS011;31100;55.848;37.636;2023-05-13T08:04:51;7.15;;;2.72;;
45366;SDS011;31100;55.848;37.636;2023-05-13T08:07:17;6.97;;;2.72;;
45366;SDS011;31100;55.848;37.636;2023-05-13T08:09:42;7.07;;;2.90;;
45366;SDS011;31100;55.848;37.636;2023-05-13T08:12:08;10.45;;;2.97;;
45366;SDS011;31100;55.848;37.636;2023-05-13T08:14:34;5.30;;;2.70;;
45366;SDS011;31100;55.848;37.636;2023-05-13T08:17:00;7.50;;;2.95;;
45366;SDS011;31100;55.848;37.636;2023-05-13T08:19:25;7.25;;;2.83;;
45366;SDS011;31100;55.848;37.636;2023-05-13T08:21:51;8.40;;;3.08;;
45366;SDS011;31100;55.848;37.636;2023-05-13T08:24:16;4.75;;;2.78;;
45366;SDS011;31100;55.848;37.636;2023-05-13T08:26:42;5.75;;;2.78;;
45366;SDS011;31100;55.848;37.636;2023-05-13T08:29:07;10.15;;;3.05;;
45366;SDS011;31100;55.848;37.636;2023-05-13T08:31:36;8.55;;;2.60;;
45366;SDS011;31100;55.848;37.636;2023-05-13T08:34:02;9.50;;;2.92;;
45366;SDS011;31100;55.848;37.636;2023-05-13T08:36:27;7.47;;;2.50;;
45366;SDS011;31100;55.848;37.636;2023-05-13T08:38:53;10.27;;;2.80;;
45366;SDS011;31100;55.848;37.636;2023-05-13T08:41:18;5.65;;;2.65;;
45366;SDS011;31100;55.848;37.636;2023-05-13T08:43:45;10.52;;;2.85;;
45366;SDS011;31100;55.848;37.636;2023-05-13T08:46:11;10.57;;;2.95;;
45366;SDS011;31100;55.848;37.636;2023-05-13T08:48:37;6.93;;;2.50;;
45366;SDS011;31100;55.848;37.636;2023-05-13T08:51:04;8.63;;;2.47;;
45366;SDS011;31100;55.848;37.636;2023-05-13T08:53:29;6.93;;;2.58;;
45366;SDS011;31100;55.848;37.636;2023-05-13T08:55:58;9.00;;;2.70;;
45366;SDS011;31100;55.848;37.636;2023-05-13T08:58:24;6.68;;;2.70;;
45366;SDS011;31100;55.848;37.636;2023-05-13T09:00:50;6.88;;;3.03;;
45366;SDS011;31100;55.848;37.636;2023-05-13T09:03:18;8.15;;;2.53;;
45366;SDS011;31100;55.848;37.636;2023-05-13T09:05:47;7.15;;;2.67;;
45366;SDS011;31100;55.848;37.636;2023-05-13T09:08:12;11.10;;;2.75;;
45366;SDS011;31100;55.848;37.636;2023-05-13T09:10:38;8.50;;;2.97;;
45366;SDS011;31100;55.848;37.636;2023-05-13T09:13:04;9.07;;;2.95;;
45366;SDS011;31100;55.848;37.636;2023-05-13T09:15:30;5.25;;;2.70;;
45366;SDS011;31100;55.848;37.636;2023-05-13T09:20:28;10.05;;;2.97;;
45366;SDS011;31100;55.848;37.636;2023-05-13T09:22:55;6.00;;;2.60;;
45366;SDS011;31100;55.848;37.636;2023-05-13T09:25:21;8.52;;;3.30;;
45366;SDS011;31100;55.848;37.636;2023-05-13T09:27:54;6.70;;;3.30;;
45366;SDS011;31100;55.848;37.636;2023-05-13T09:30:26;7.72;;;3.38;;
45366;SDS011;31100;55.848;37.636;2023-05-13T09:38:14;7.13;;;3.05;;
45366;SDS011;31100;55.848;37.636;2023-05-13T09:40:48;5.45;;;2.90;;
45366;SDS011;31100;55.848;37.636;2023-05-13T09:43:22;7.40;;;3.58;;
45366;SDS011;31100;55.848;37.636;2023-05-13T09:45:55;5.15;;;2.63;;
45366;SDS011;31100;55.848;37.636;2023-05-13T09:48:23;7.88;;;2.92;;
45366;SDS011;31100;55.848;37.636;2023-05-13T09:50:50;8.93;;;2.70;;
45366;SDS011;31100;55.848;37.636;2023-05-13T09:53:16;7.07;;;2.70;;
45366;SDS011;31100;55.848;37.636;2023-05-13T09:55:48;6.00;;;2.65;;
45366;SDS011;31100;55.848;37.636;2023-05-13T09:58:15;5.78;;;2.75;;
45366;SDS011;31100;55.848;37.636;2023-05-13T10:00:41;5.18;;;3.03;;
45366;SDS011;31100;55.848;37.636;2023-05-13T10:03:07;8.90;;;2.90;;
45366;SDS011;31100;55.848;37.636;2023-05-13T10:05:34;6.95;;;2.90;;
45366;SDS011;31100;55.848;37.636;2023-05-13T10:08:00;5.70;;;2.90;;
45366;SDS011;31100;55.848;37.636;2023-05-13T10:10:27;7.03;;;2.53;;
45366;SDS011;31100;55.848;37.636;2023-05-13T10:12:57;5.20;;;2.92;;
45366;SDS011;31100;55.848;37.636;2023-05-13T10:15:23;6.95;;;2.70;;
45366;SDS011;31100;55.848;37.636;2023-05-13T10:17:49;7.95;;;3.08;;
45366;SDS011;31100;55.848;37.636;2023-05-13T10:20:15;6.03;;;3.03;;
45366;SDS011;31100;55.848;37.636;2023-05-13T10:22:40;8.48;;;3.45;;
45366;SDS011;31100;55.848;37.636;2023-05-13T10:25:06;4.65;;;2.85;;
45366;SDS011;31100;55.848;37.636;2023-05-13T10:27:32;5.20;;;3.05;;
45366;SDS011;31100;55.848;37.636;2023-05-13T10:29:59;7.10;;;3.13;;
45366;SDS011;31100;55.848;37.636;2023-05-13T10:32:29;7.32;;;2.90;;
45366;SDS011;31100;55.848;37.636;2023-05-13T10:35:09;5.38;;;3.03;;
45366;SDS011;31100;55.848;37.636;2023-05-13T10:40:14;6.53;;;2.95;;
45366;SDS011;31100;55.848;37.636;2023-05-13T10:42:49;5.65;;;2.47;;
45366;SDS011;31100;55.848;37.636;2023-05-13T10:45:34;4.75;;;2.63;;
45366;SDS011;31100;55.848;37.636;2023-05-13T10:48:06;5.30;;;2.53;;
45366;SDS011;31100;55.848;37.636;2023-05-13T10:50:35;5.63;;;2.42;;
45366;SDS011;31100;55.848;37.636;2023-05-13T10:53:08;7.90;;;2.67;;
45366;SDS011;31100;55.848;37.636;2023-05-13T10:55:44;5.63;;;2.85;;
45366;SDS011;31100;55.848;37.636;2023-05-13T10:58:13;5.28;;;2.38;;
45366;SDS011;31100;55.848;37.636;2023-05-13T11:00:41;7.65;;;3.00;;
45366;SDS011;31100;55.848;37.636;2023-05-13T11:03:11;3.95;;;2.60;;
45366;SDS011;31100;55.848;37.636;2023-05-13T11:06:03;8.07;;;2.70;;
45366;SDS011;31100;55.848;37.636;2023-05-13T11:08:49;6.10;;;2.70;;
45366;SDS011;31100;55.848;37.636;2023-05-13T11:11:32;6.03;;;2.85;;
45366;SDS011;31100;55.848;37.636;2023-05-13T11:14:06;4.30;;;2.50;;
45366;SDS011;31100;55.848;37.636;2023-05-13T11:16:33;7.32;;;2.70;;
45366;SDS011;31100;55.848;37.636;2023-05-13T11:19:01;7.70;;;2.55;;
45366;SDS011;31100;55.848;37.636;2023-05-13T11:21:28;5.90;;;2.45;;
45366;SDS011;31100;55.848;37.636;2023-05-13T11:23:55;3.80;;;2.30;;
45366;SDS011;31100;55.848;37.636;2023-05-13T11:26:46;5.80;;;2.50;;
45366;SDS011;31100;55.848;37.636;2023-05-13T11:29:13;5.80;;;2.70;;
45366;SDS011;31100;55.848;37.636;2023-05-13T11:31:43;7.70;;;2.70;;
45366;SDS011;31100;55.848;37.636;2023-05-13T11:34:17;6.47;;;2.65;;
45366;SDS011;31100;55.848;37.636;2023-05-13T11:36:47;6.45;;;2.47;;
45366;SDS011;31100;55.848;37.636;2023-05-13T11:39:20;6.57;;;2.45;;
45366;SDS011;31100;55.848;37.636;2023-05-13T11:41:50;8.63;;;2.70;;
45366;SDS011;31100;55.848;37.636;2023-05-13T11:44:19;4.25;;;2.55;;
45366;SDS011;31100;55.848;37.636;2023-05-13T11:49:34;5.95;;;2.67;;
45366;SDS011;31100;55.848;37.636;2023-05-13T11:52:09;6.63;;;2.67;;
45366;SDS011;31100;55.848;37.636;2023-05-13T11:57:18;3.45;;;2.22;;
45366;SDS011;31100;55.848;37.636;2023-05-13T12:00:04;4.63;;;2.50;;
45366;SDS011;31100;55.848;37.636;2023-05-13T12:02:31;5.78;;;2.63;;
45366;SDS011;31100;55.848;37.636;2023-05-13T12:05:04;4.05;;;2.30;;
45366;SDS011;31100;55.848;37.636;2023-05-13T12:07:34;4.72;;;2.25;;
45366;SDS011;31100;55.848;37.636;2023-05-13T12:10:01;5.45;;;2.50;;
45366;SDS011;31100;55.848;37.636;2023-05-13T12:12:28;5.38;;;2.35;;
45366;SDS011;31100;55.848;37.636;2023-05-13T12:14:55;5.10;;;2.13;;
45366;SDS011;31100;55.848;37.636;2023-05-13T12:17:23;8.57;;;2.63;;
45366;SDS011;31100;55.848;37.636;2023-05-13T12:22:47;7.15;;;2.13;;
45366;SDS011;31100;55.848;37.636;2023-05-13T12:28:08;5.65;;;2.20;;
45366;SDS011;31100;55.848;37.636;2023-05-13T12:30:34;3.72;;;2.22;;
45366;SDS011;31100;55.848;37.636;2023-05-13T12:33:01;4.10;;;2.20;;
45366;SDS011;31100;55.848;37.636;2023-05-13T12:35:29;6.75;;;2.42;;
45366;SDS011;31100;55.848;37.636;2023-05-13T12:38:01;5.07;;;2.20;;
45366;SDS011;31100;55.848;37.636;2023-05-13T12:40:27;6.07;;;2.40;;
45366;SDS011;31100;55.848;37.636;2023-05-13T12:43:00;5.35;;;2.35;;
45366;SDS011;31100;55.848;37.636;2023-05-13T12:45:29;5.22;;;2.20;;
45366;SDS011;31100;55.848;37.636;2023-05-13T12:47:56;5.18;;;2.30;;
45366;SDS011;31100;55.848;37.636;2023-05-13T12:50:21;5.93;;;2.30;;
45366;SDS011;31100;55.848;37.636;2023-05-13T12:52:47;4.90;;;2.40;;
45366;SDS011;31100;55.848;37.636;2023-05-13T12:55:13;6.47;;;2.30;;
45366;SDS011;31100;55.848;37.636;2023-05-13T12:57:39;5.88;;;2.35;;
45366;SDS011;31100;55.848;37.636;2023-05-13T13:00:08;6.18;;;2.38;;
45366;SDS011;31100;55.848;37.636;2023-05-13T13:02:35;6.25;;;2.30;;
45366;SDS011;31100;55.848;37.636;2023-05-13T13:05:01;7.03;;;2.58;;
45366;SDS011;31100;55.848;37.636;2023-05-13T13:07:27;5.57;;;2.45;;
45366;SDS011;31100;55.848;37.636;2023-05-13T13:09:53;6.22;;;2.10;;
45366;SDS011;31100;55.848;37.636;2023-05-13T13:12:19;5.95;;;2.20;;
45366;SDS011;31100;55.848;37.636;2023-05-13T13:14:45;5.93;;;2.42;;
45366;SDS011;31100;55.848;37.636;2023-05-13T13:17:11;7.18;;;2.40;;
45366;SDS011;31100;55.848;37.636;2023-05-13T13:19:36;4.43;;;2.08;;
45366;SDS011;31100;55.848;37.636;2023-05-13T13:22:02;5.10;;;2.38;;
45366;SDS011;31100;55.848;37.636;2023-05-13T13:24:28;6.70;;;3.03;;
45366;SDS011;31100;55.848;37.636;2023-05-13T13:26:53;4.03;;;2.30;;
45366;SDS011;31100;55.848;37.636;2023-05-13T13:29:19;5.50;;;2.20;;
45366;SDS011;31100;55.848;37.636;2023-05-13T13:31:44;7.95;;;2.63;;
45366;SDS011;31100;55.848;37.636;2023-05-13T13:34:11;10.18;;;2.60;;
45366;SDS011;31100;55.848;37.636;2023-05-13T13:36:37;7.25;;;2.60;;
45366;SDS011;31100;55.848;37.636;2023-05-13T13:39:03;3.97;;;2.22;;
45366;SDS011;31100;55.848;37.636;2023-05-13T13:41:28;4.70;;;2.35;;
45366;SDS011;31100;55.848;37.636;2023-05-13T13:43:54;5.28;;;2.50;;
45366;SDS011;31100;55.848;37.636;2023-05-13T13:46:19;6.60;;;2.90;;
45366;SDS011;31100;55.848;37.636;2023-05-13T13:48:45;7.28;;;2.60;;
45366;SDS011;31100;55.848;37.636;2023-05-13T13:51:10;5.68;;;2.42;;
45366;SDS011;31100;55.848;37.636;2023-05-13T13:53:36;4.18;;;2.55;;
45366;SDS011;31100;55.848;37.636;2023-05-13T13:56:01;9.13;;;2.65;;
45366;SDS011;31100;55.848;37.636;2023-05-13T13:58:27;5.88;;;2.65;;
45366;SDS011;31100;55.848;37.636;2023-05-13T14:00:52;7.38;;;2.50;;
45366;SDS011;31100;55.848;37.636;2023-05-13T14:03:18;5.40;;;2.50;;
45366;SDS011;31100;55.848;37.636;2023-05-13T14:05:43;5.47;;;2.30;;
45366;SDS011;31100;55.848;37.636;2023-05-13T14:08:09;7.72;;;2.42;;
45366;SDS011;31100;55.848;37.636;2023-05-13T14:10:35;5.57;;;2.10;;
45366;SDS011;31100;55.848;37.636;2023-05-13T14:13:01;7.50;;;2.13;;
45366;SDS011;31100;55.848;37.636;2023-05-13T14:15:27;5.05;;;2.38;;
45366;SDS011;31100;55.848;37.636;2023-05-13T14:17:54;5.13;;;2.63;;
45366;SDS011;31100;55.848;37.636;2023-05-13T14:20:20;6.00;;;2.33;;
45366;SDS011;31100;55.848;37.636;2023-05-13T14:22:46;5.28;;;2.50;;
45366;SDS011;31100;55.848;37.636;2023-05-13T14:25:12;4.15;;;2.20;;
45366;SDS011;31100;55.848;37.636;2023-05-13T14:27:38;4.25;;;2.17;;
45366;SDS011;31100;55.848;37.636;2023-05-13T14:30:04;5.03;;;2.38;;
45366;SDS011;31100;55.848;37.636;2023-05-13T14:32:30;4.35;;;2.20;;
45366;SDS011;31100;55.848;37.636;2023-05-13T14:34:56;9.38;;;2.65;;
45366;SDS011;31100;55.848;37.636;2023-05-13T14:37:22;4.18;;;2.20;;
45366;SDS011;31100;55.848;37.636;2023-05-13T14:39:47;4.43;;;2.20;;
45366;SDS011;31100;55.848;37.636;2023-05-13T14:42:13;4.70;;;2.40;;
45366;SDS011;31100;55.848;37.636;2023-05-13T14:44:38;6.05;;;2.53;;
45366;SDS011;31100;55.848;37.636;2023-05-13T14:47:05;7.25;;;2.30;;
45366;SDS011;31100;55.848;37.636;2023-05-13T14:49:31;5.80;;;2.47;;
45366;SDS011;31100;55.848;37.636;2023-05-13T14:51:57;6.65;;;2.70;;
45366;SDS011;31100;55.848;37.636;2023-05-13T14:54:22;6.10;;;2.15;;
45366;SDS011;31100;55.848;37.636;2023-05-13T14:56:48;6.18;;;2.45;;
45366;SDS011;31100;55.848;37.636;2023-05-13T14:59:15;5.47;;;2.40;;